Estación Meteorológica Peña el Pijo (Robertgarden) [ 04/25/18 02:54:35 CEST ]

Fecha Hora Presion(HPa) Temp (°C) Humedad % Rocio (°C) Viento ( m/s) Direccion Lluvia 1Hora(mm) Lluvia 24H(mm) LLuvia Total(mm)
2017-Nov-28 01:01:47 1013.000 1.6 80 -1.5         1468.01
2017-Nov-28 02:05:10 1012.000 1.6 81 -1.3         1468.01
2017-Nov-28 03:01:44 1011.900 3.1 83 0.5         1468.01
2017-Nov-28 04:01:27 1011.000 3.8 83 1.2         1468.01
2017-Nov-28 05:01:55 1010.600 7.5 83 4.8         1468.01
2017-Nov-28 06:01:41 1010.300 7.5 80 4.3         1468.01
2017-Nov-28 07:01:38 1010.100 6.9 80 3.7         1468.01
2017-Nov-28 08:01:44 1010.100 6.9 80 3.7         1468.01
2017-Nov-28 09:01:42 1010.100 7.9 81 4.9         1468.01
2017-Nov-28 10:01:49 1009.800 10.8 78 7.1         1468.01
2017-Nov-28 11:01:39 1009.900 12.1 73 7.4         1468.01
2017-Nov-28 12:01:32 1009.200 12.5 73 7.8         1468.01
2017-Nov-28 13:01:43 1008.000 13.4 67 7.4         1468.01
2017-Nov-28 14:01:41 1006.700 14.2 64 7.5         1468.01
2017-Nov-28 15:01:41 1006.400 13.0 66 6.8 0.6 NNW     1468.01
2017-Nov-28 16:01:53 1005.800 12.2 69 6.7 0.8 NNW     1468.01
2017-Nov-28 17:01:50 1005.400 11.6 71 6.5         1468.01
2017-Nov-28 18:01:45 1005.200 10.5 75 6.2         1468.01
2017-Nov-28 19:02:06 1004.400 9.4 79 5.9     0.51 0.51 1468.53
2017-Nov-28 20:01:48 1004.100 8.1 81 5.1       0.51 1468.53
2017-Nov-28 21:01:51 1003.600 8.1 83 5.4       0.51 1468.53
2017-Nov-28 22:01:51 1002.800 8.9 85 6.5       0.51 1468.53
2017-Nov-28 23:01:40 1002.200 9.5 84 6.9       0.51 1468.53

Temperatura Máxima:14°    Temperatura Mínima:
Presión Máxima:1013.000 Hpa    Presión Mínima:1002.200 Hpa


Volver